Kildonan, Canada
Current Conditions -  °F | °C
As of 5:00 PM on Tuesday 27 Jan 2015 (Local Time) from CYAZ Reporting Station
Scattered Clouds Scattered Clouds  
Wind Chill: 45°   Ceiling: Unl
Heat Index: 48°   Visibility: 15mi
Dew Point: 43°   Wind: 7mph
Humidity: 82%   Direction: 280°W
Pressure: 30.15"   Gusts: NA
Location:  49.02°N, 125°W
Report Text: CYAZ 280100Z 28006KT 15SM FEW016 SCT020 09/06 A3015 RMK CF2SC2 LAST OBS/NEXT 281500UTC SLP209
Loading
Personal Weather Stations






























Interactive Weather Map New forecast layout! Learn more

10-Day Weather Forecast

Advertisements
Track Severe Weather on mobile